Time;durP1;ratioP1;P1;durP2;ratioP2;P2;SDS_P1;SDS_P2;PMS_P1;PMS_P2;Temp;Humidity;BMP_temperature;BMP_pressure;BME280_temperature;BME280_humidity;BME280_pressure;Samples;Min_cycle;Max_cycle;Signal;HPM_P1;HPM_P2
2023/09/23 00:01:07;;;;;;;1.53;1.03;;;14.00;99.90;14.00;99778.00;;;;5015812;27;83407;-65
2023/09/23 00:03:33;;;;;;;1.93;0.97;;;14.00;99.90;14.00;99788.00;;;;5013348;27;86621;-65
2023/09/23 00:06:03;;;;;;;1.53;1.10;;;14.00;99.90;14.00;99786.00;;;;5015503;27;82811;-64
2023/09/23 00:08:29;;;;;;;1.13;0.80;;;14.00;99.90;14.00;99798.00;;;;5008947;27;82930;-65
2023/09/23 00:10:55;;;;;;;0.95;0.88;;;14.00;99.90;14.00;99805.00;;;;5011820;27;105057;-65
2023/09/23 00:13:21;;;;;;;2.00;0.87;;;14.00;99.90;14.00;99804.00;;;;5014537;27;113284;-65
2023/09/23 00:15:52;;;;;;;0.93;0.93;;;14.00;99.90;14.00;99790.00;;;;5008936;27;82732;-65
2023/09/23 00:18:18;;;;;;;0.83;0.53;;;14.00;99.90;14.00;99786.00;;;;5014811;27;83222;-65
2023/09/23 00:20:45;;;;;;;1.47;0.90;;;14.00;99.90;14.00;99793.00;;;;5011440;27;112749;-65
2023/09/23 00:23:12;;;;;;;1.40;1.07;;;14.00;99.90;14.00;99789.00;;;;5004193;27;83624;-65
2023/09/23 00:25:38;;;;;;;1.20;0.65;;;14.00;99.90;14.00;99787.00;;;;4992026;27;103433;-66
2023/09/23 00:28:10;;;;;;;1.88;1.08;;;13.90;99.90;13.90;99788.00;;;;4996862;27;82120;-66
2023/09/23 00:30:37;;;;;;;0.87;0.80;;;13.90;99.90;13.90;99780.00;;;;4992889;27;82782;-65
2023/09/23 00:33:04;;;;;;;0.50;0.50;;;13.90;99.90;13.90;99780.00;;;;4994593;27;82902;-65
2023/09/23 00:35:30;;;;;;;1.20;1.13;;;13.80;99.90;13.80;99788.00;;;;4991732;27;103639;-65
2023/09/23 00:37:57;;;;;;;0.93;0.73;;;13.80;99.90;13.80;99782.00;;;;4995606;27;82729;-65
2023/09/23 00:40:38;;;;;;;0.40;0.40;;;13.80;99.90;13.70;99778.00;;;;4989952;27;84079;-65
2023/09/23 00:43:08;;;;;;;1.27;0.83;;;13.70;99.90;13.70;99777.00;;;;4989334;27;83129;-65
2023/09/23 00:45:34;;;;;;;1.80;0.80;;;13.70;99.90;13.70;99771.00;;;;4991136;27;83031;-66
2023/09/23 00:48:00;;;;;;;2.70;0.87;;;13.70;99.90;13.60;99767.00;;;;4990769;27;108602;-66
2023/09/23 00:50:29;;;;;;;0.83;0.83;;;13.70;99.90;13.60;99772.00;;;;4971585;28;82497;-65
2023/09/23 00:52:58;;;;;;;1.23;0.73;;;13.60;99.90;13.60;99776.00;;;;4994861;27;83337;-65
2023/09/23 00:55:24;;;;;;;0.50;0.50;;;13.60;99.90;13.60;99789.00;;;;4992055;27;82827;-65
2023/09/23 00:57:53;;;;;;;1.23;1.10;;;13.60;99.90;13.60;99790.00;;;;4996211;27;108072;-65
2023/09/23 01:00:27;;;;;;;0.40;0.40;;;13.60;99.90;13.50;99779.00;;;;4992166;27;83841;-65
2023/09/23 01:02:56;;;;;;;1.10;0.97;;;13.60;99.90;13.50;99778.00;;;;4988660;27;84737;-64
2023/09/23 01:05:29;;;;;;;0.63;0.63;;;13.50;99.90;13.50;99776.00;;;;4990310;27;82736;-64
2023/09/23 01:07:59;;;;;;;1.43;1.00;;;13.50;99.90;13.40;99782.00;;;;4992418;27;82737;-64
2023/09/23 01:10:25;;;;;;;1.63;0.70;;;13.40;99.90;13.40;99780.00;;;;4985552;27;83771;-65
2023/09/23 01:12:51;;;;;;;5.37;1.17;;;13.40;99.90;13.30;99787.00;;;;4992412;27;96511;-65
2023/09/23 01:15:18;;;;;;;1.30;0.93;;;13.40;99.90;13.30;99788.00;;;;4990724;27;108721;-65
2023/09/23 01:17:52;;;;;;;1.10;0.90;;;13.10;99.90;13.20;99788.00;;;;4994303;27;82051;-65
2023/09/23 01:20:18;;;;;;;0.83;0.83;;;13.20;99.90;13.10;99791.00;;;;4992362;27;83976;-65
2023/09/23 01:22:47;;;;;;;0.87;0.70;;;13.20;99.90;13.10;99792.00;;;;4994601;27;82876;-65
2023/09/23 01:25:13;;;;;;;1.00;0.80;;;13.10;99.90;13.00;99794.00;;;;5007261;27;83653;-64
2023/09/23 01:27:39;;;;;;;1.17;0.93;;;13.10;99.90;12.90;99795.00;;;;5011867;27;100262;-64
2023/09/23 01:30:05;;;;;;;0.87;0.87;;;13.00;99.90;12.90;99788.00;;;;5012422;27;106255;-65
2023/09/23 01:32:53;;;;;;;0.70;0.50;;;12.90;99.90;12.80;99784.00;;;;5010993;27;83057;-64
2023/09/23 01:35:20;;;;;;;0.90;0.80;;;12.90;99.90;12.80;99790.00;;;;4992993;27;82744;-65
2023/09/23 01:37:47;;;;;;;1.20;1.10;;;12.80;99.90;12.70;99795.00;;;;5012195;27;82854;-65
2023/09/23 01:40:17;;;;;;;2.73;1.23;;;12.80;99.90;12.70;99805.00;;;;5010610;27;82826;-65
2023/09/23 01:42:51;;;;;;;0.73;0.70;;;12.70;99.90;12.60;99810.00;;;;5014693;27;81998;-65
2023/09/23 01:45:19;;;;;;;2.20;1.03;;;12.70;99.90;12.60;99823.00;;;;5010366;27;83718;-65
2023/09/23 01:47:45;;;;;;;1.40;1.30;;;12.60;99.90;12.60;99827.00;;;;5013543;27;83048;-64
2023/09/23 01:50:13;;;;;;;2.20;1.43;;;12.60;99.90;12.50;99834.00;;;;5010859;27;84545;-66
2023/09/23 01:52:40;;;;;;;1.40;0.97;;;12.50;99.90;12.40;99830.00;;;;5012192;27;83188;-64
2023/09/23 01:55:09;;;;;;;1.13;1.00;;;12.50;99.90;12.40;99842.00;;;;5018197;27;82930;-65
2023/09/23 01:57:34;;;;;;;1.33;0.90;;;12.40;99.90;12.40;99837.00;;;;5013456;27;82605;-65
2023/09/23 02:00:01;;;;;;;1.17;0.80;;;12.40;99.90;12.30;99836.00;;;;5012242;27;83673;-65
2023/09/23 02:02:27;;;;;;;1.67;0.90;;;12.30;99.90;12.30;99843.00;;;;5010020;27;83487;-65
2023/09/23 02:04:53;;;;;;;0.93;0.83;;;12.30;99.90;12.20;99848.00;;;;5012273;27;109532;-65
2023/09/23 02:07:19;;;;;;;0.70;0.70;;;12.30;99.90;12.20;99858.00;;;;5011050;27;109042;-64
2023/09/23 02:09:45;;;;;;;2.93;0.90;;;12.20;99.90;12.20;99849.00;;;;5016095;27;112655;-65
2023/09/23 02:12:12;;;;;;;1.33;1.20;;;12.20;99.90;12.10;99841.00;;;;5011240;27;82929;-65
2023/09/23 02:14:40;;;;;;;0.70;0.63;;;12.20;99.90;12.10;99852.00;;;;5015469;27;83525;-65
2023/09/23 02:17:06;;;;;;;1.63;1.00;;;12.10;99.90;12.10;99854.00;;;;5011960;27;87902;-65
2023/09/23 02:19:31;;;;;;;0.90;0.77;;;12.10;99.90;12.00;99843.00;;;;5010325;27;113301;-65
2023/09/23 02:21:57;;;;;;;1.57;0.97;;;12.00;99.90;11.90;99850.00;;;;5006591;27;111830;-66
2023/09/23 02:24:23;;;;;;;0.93;0.60;;;12.00;99.90;11.90;99849.00;;;;5018065;27;86761;-66
2023/09/23 02:26:49;;;;;;;0.80;0.80;;;12.00;99.90;11.80;99853.00;;;;5012539;27;93088;-65
2023/09/23 02:29:15;;;;;;;4.00;1.40;;;11.90;99.90;11.80;99861.00;;;;5012819;27;112007;-67
2023/09/23 02:31:46;;;;;;;0.80;0.80;;;11.80;99.90;11.70;99851.00;;;;4996910;27;82745;-67
2023/09/23 02:34:16;;;;;;;0.50;0.50;;;11.80;99.90;11.70;99869.00;;;;5007562;27;82766;-67
2023/09/23 02:36:46;;;;;;;0.97;0.80;;;11.70;99.90;11.60;99885.00;;;;5019505;27;82683;-66
2023/09/23 02:39:15;;;;;;;1.63;1.07;;;11.70;99.90;11.60;99876.00;;;;5015999;27;85002;-66
2023/09/23 02:41:45;;;;;;;0.47;0.47;;;11.60;99.90;11.50;99888.00;;;;5011789;27;83899;-64
2023/09/23 02:44:18;;;;;;;2.87;1.43;;;11.50;99.90;11.50;99886.00;;;;5015268;27;82655;-65
2023/09/23 02:46:47;;;;;;;1.03;0.90;;;11.50;99.90;11.40;99897.00;;;;5015682;27;83160;-67
2023/09/23 02:49:14;;;;;;;2.93;1.07;;;11.50;99.90;11.40;99898.00;;;;5010573;27;83168;-65
2023/09/23 02:51:44;;;;;;;3.47;0.77;;;11.40;99.90;11.40;99895.00;;;;5015225;27;82698;-65
2023/09/23 02:54:13;;;;;;;0.77;0.50;;;11.40;99.90;11.30;99876.00;;;;5009468;27;82757;-65
2023/09/23 02:56:40;;;;;;;1.33;1.10;;;11.40;99.90;11.30;99884.00;;;;5014665;27;82173;-65
2023/09/23 02:59:13;;;;;;;1.10;0.97;;;11.30;99.90;11.30;99876.00;;;;5014896;27;83198;-65
2023/09/23 03:01:45;;;;;;;0.90;0.87;;;11.30;99.90;11.30;99883.00;;;;5013011;27;83789;-65
2023/09/23 03:04:19;;;;;;;1.17;0.93;;;11.30;99.90;11.30;99879.00;;;;5013593;27;83821;-65
2023/09/23 03:06:50;;;;;;;0.73;0.73;;;11.30;99.90;11.30;99897.00;;;;5016547;27;82677;-65
2023/09/23 03:09:25;;;;;;;2.10;0.93;;;11.30;99.90;11.30;99903.00;;;;5012316;27;83264;-65
2023/09/23 03:11:55;;;;;;;0.50;0.50;;;11.30;99.90;11.40;99908.00;;;;5009911;27;82842;-66
2023/09/23 03:14:23;;;;;;;1.13;0.63;;;11.40;99.90;11.50;99918.00;;;;5018352;27;83163;-65
2023/09/23 03:16:53;;;;;;;0.93;0.73;;;11.50;99.90;11.60;99923.00;;;;5012586;27;82812;-65
2023/09/23 03:19:25;;;;;;;0.40;0.40;;;11.50;99.90;11.70;99912.00;;;;5009758;27;83675;-65
2023/09/23 03:21:55;;;;;;;1.10;0.80;;;11.70;99.90;11.80;99912.00;;;;5013175;27;83224;-64
2023/09/23 03:24:24;;;;;;;0.93;0.47;;;11.80;99.90;11.90;99931.00;;;;5012110;27;82703;-65
2023/09/23 03:27:01;;;;;;;0.53;0.43;;;11.90;99.90;12.00;99931.00;;;;5012787;27;82678;-65
2023/09/23 03:29:34;;;;;;;2.63;0.83;;;12.00;99.90;12.10;99934.00;;;;5011975;27;84781;-66
2023/09/23 03:31:59;;;;;;;0.30;0.30;;;12.00;99.90;12.20;99934.00;;;;5014641;27;83142;-65
2023/09/23 03:34:26;;;;;;;0.50;0.50;;;12.20;99.90;12.20;99934.00;;;;5012740;27;109518;-64
2023/09/23 03:36:53;;;;;;;0.93;0.43;;;12.20;99.90;12.30;99937.00;;;;5012917;27;82760;-66
2023/09/23 03:39:20;;;;;;;0.70;0.60;;;12.20;99.90;12.30;99938.00;;;;5013336;27;83867;-64
2023/09/23 03:41:46;;;;;;;1.03;0.40;;;12.30;99.90;12.30;99943.00;;;;5014635;27;83473;-64
2023/09/23 03:44:16;;;;;;;0.50;0.30;;;12.30;99.90;12.30;99951.00;;;;5012691;27;82673;-64
2023/09/23 03:46:45;;;;;;;0.57;0.33;;;12.30;99.90;12.30;99943.00;;;;5015050;27;82042;-65
2023/09/23 03:49:11;;;;;;;0.30;0.30;;;12.30;99.90;12.30;99944.00;;;;5010098;27;104211;-64
2023/09/23 03:51:37;;;;;;;0.63;0.40;;;12.30;99.90;12.30;99950.00;;;;5016082;27;82680;-64
2023/09/23 03:54:04;;;;;;;0.40;0.40;;;12.40;99.90;12.30;99952.00;;;;5009861;27;83699;-64
2023/09/23 03:56:33;;;;;;;2.13;0.50;;;12.40;99.90;12.30;99955.00;;;;5016616;27;84053;-64
2023/09/23 03:59:05;;;;;;;0.50;0.40;;;12.40;99.90;12.30;99957.00;;;;5008193;27;85023;-64
2023/09/23 04:01:36;;;;;;;0.30;0.30;;;12.40;99.90;12.30;99964.00;;;;5015355;27;82957;-65
2023/09/23 04:04:03;;;;;;;0.60;0.53;;;12.40;99.90;12.30;99959.00;;;;4992481;27;83200;-65
2023/09/23 04:06:30;;;;;;;0.20;0.20;;;12.30;99.90;12.30;99961.00;;;;5013973;27;82749;-65
2023/09/23 04:08:59;;;;;;;0.50;0.50;;;12.30;99.90;12.30;99956.00;;;;5015147;27;83571;-64
2023/09/23 04:11:27;;;;;;;1.27;0.47;;;12.30;99.90;12.30;99967.00;;;;5011922;27;82797;-64
2023/09/23 04:13:54;;;;;;;0.30;0.30;;;12.30;99.90;12.30;99977.00;;;;5010757;27;82806;-65
2023/09/23 04:16:30;;;;;;;0.50;0.50;;;12.60;99.90;12.30;99981.00;;;;5009676;27;82563;-64
2023/09/23 04:18:56;;;;;;;0.77;0.20;;;12.30;99.90;12.30;99985.00;;;;5012483;27;114114;-65
2023/09/23 04:21:24;;;;;;;2.03;0.43;;;12.30;99.90;12.30;99982.00;;;;5016583;27;83249;-65
2023/09/23 04:23:52;;;;;;;0.70;0.60;;;12.30;99.90;12.30;99968.00;;;;5015241;27;82759;-65
2023/09/23 04:26:21;;;;;;;0.57;0.30;;;12.30;99.90;12.30;99989.00;;;;5013633;27;82938;-64
2023/09/23 04:28:51;;;;;;;0.40;0.40;;;12.30;99.90;12.30;100000.00;;;;5015830;27;83848;-65
2023/09/23 04:31:18;;;;;;;1.60;0.50;;;12.30;99.90;12.30;100004.00;;;;5012782;27;83632;-64
2023/09/23 04:33:44;;;;;;;0.30;0.30;;;12.30;99.90;12.20;99994.00;;;;5012784;27;82650;-65
2023/09/23 04:36:11;;;;;;;0.40;0.40;;;12.30;99.90;12.20;100004.00;;;;5015578;27;102174;-64
2023/09/23 04:38:37;;;;;;;0.60;0.30;;;12.20;99.90;12.20;99995.00;;;;5011805;27;83567;-65
2023/09/23 04:41:02;;;;;;;0.87;0.53;;;12.20;99.90;12.20;100005.00;;;;5011606;27;112844;-64
2023/09/23 04:43:30;;;;;;;0.27;0.27;;;12.20;99.90;12.20;100006.00;;;;5014161;27;83603;-65
2023/09/23 04:45:57;;;;;;;0.27;0.27;;;12.20;99.90;12.20;100019.00;;;;5017053;27;82777;-64
2023/09/23 04:48:24;;;;;;;0.30;0.30;;;12.20;99.90;12.20;100025.00;;;;5009586;27;102574;-66
2023/09/23 04:50:52;;;;;;;0.20;0.20;;;12.20;99.90;12.20;100027.00;;;;5014534;27;83316;-65
2023/09/23 04:53:18;;;;;;;0.70;0.50;;;12.20;99.90;12.20;100035.00;;;;5011987;27;82687;-65
2023/09/23 04:55:45;;;;;;;0.30;0.30;;;12.20;99.90;12.10;100030.00;;;;5009899;27;109166;-65
2023/09/23 04:58:12;;;;;;;0.30;0.30;;;12.20;99.90;12.10;100033.00;;;;5013793;27;82898;-66
2023/09/23 05:00:41;;;;;;;0.57;0.50;;;12.10;99.90;12.10;100040.00;;;;5010706;27;83267;-65
2023/09/23 05:03:08;;;;;;;0.30;0.30;;;12.10;99.90;12.00;100048.00;;;;5010097;27;82899;-66
2023/09/23 05:05:34;;;;;;;0.30;0.27;;;12.10;99.90;12.00;100048.00;;;;5009111;27;82876;-65
2023/09/23 05:08:06;;;;;;;0.97;0.47;;;12.00;99.90;12.00;100039.00;;;;5015574;27;84127;-65
2023/09/23 05:10:32;;;;;;;0.47;0.33;;;12.00;99.90;11.90;100043.00;;;;5014167;27;83703;-66
2023/09/23 05:12:58;;;;;;;0.67;0.67;;;11.90;99.90;11.90;100043.00;;;;5014396;27;82663;-66
2023/09/23 05:15:24;;;;;;;0.30;0.30;;;11.90;99.90;11.80;100048.00;;;;5012178;27;109490;-66
2023/09/23 05:17:52;;;;;;;0.13;0.13;;;11.90;99.90;11.80;100050.00;;;;5016130;27;84267;-66
2023/09/23 05:20:19;;;;;;;0.47;0.30;;;11.80;99.90;11.80;100064.00;;;;5011871;27;82793;-65
2023/09/23 05:22:46;;;;;;;0.40;0.40;;;11.80;99.90;11.80;100075.00;;;;5007078;27;84810;-64
2023/09/23 05:25:11;;;;;;;2.43;0.57;;;11.80;99.90;11.80;100062.00;;;;5013273;27;82250;-66
2023/09/23 05:27:41;;;;;;;0.90;0.87;;;11.80;99.90;11.90;100058.00;;;;5012256;27;83441;-66
2023/09/23 05:30:11;;;;;;;0.40;0.40;;;11.80;99.90;11.90;100065.00;;;;4992902;27;111650;-65
2023/09/23 05:32:37;;;;;;;0.30;0.30;;;11.90;99.90;11.90;100060.00;;;;5010420;27;102325;-65
2023/09/23 05:35:10;;;;;;;0.50;0.50;;;11.90;99.90;11.90;100066.00;;;;5011120;27;82630;-65
2023/09/23 05:37:37;;;;;;;0.70;0.50;;;11.90;99.90;12.00;100068.00;;;;5016873;27;82914;-65
2023/09/23 05:42:51;;;;;;;0.40;0.40;;;12.00;99.90;12.10;100075.00;;;;5009596;27;82701;-66
2023/09/23 05:45:18;;;;;;;0.47;0.47;;;12.00;99.90;12.20;100079.00;;;;4991837;27;82971;-66
2023/09/23 05:47:46;;;;;;;0.57;0.40;;;12.10;99.90;12.20;100078.00;;;;5010367;27;82597;-65
2023/09/23 05:50:14;;;;;;;1.13;0.50;;;12.20;99.90;12.30;100093.00;;;;5011787;27;112473;-65
2023/09/23 05:52:40;;;;;;;0.33;0.33;;;12.30;99.90;12.40;100096.00;;;;5006905;27;82641;-65
2023/09/23 05:55:07;;;;;;;0.70;0.40;;;12.40;99.90;12.60;100105.00;;;;5012488;27;108596;-65
2023/09/23 05:57:38;;;;;;;0.57;0.20;;;12.50;99.90;12.70;100107.00;;;;5018314;27;84473;-65
2023/09/23 06:00:10;;;;;;;1.17;0.63;;;12.60;99.90;12.80;100112.00;;;;5012816;27;83507;-65
2023/09/23 06:02:35;;;;;;;0.80;0.63;;;12.70;99.90;12.90;100101.00;;;;5011213;27;82759;-65
2023/09/23 06:05:02;;;;;;;0.37;0.37;;;12.80;99.90;12.90;100110.00;;;;5014117;27;82974;-65
2023/09/23 06:07:28;;;;;;;0.60;0.50;;;12.90;99.90;13.00;100134.00;;;;5013854;27;84246;-63
2023/09/23 06:09:55;;;;;;;0.67;0.50;;;13.00;99.90;13.10;100126.00;;;;5016396;27;83259;-64
2023/09/23 06:12:21;;;;;;;0.40;0.40;;;13.00;99.90;13.20;100126.00;;;;5001629;27;83005;-65
2023/09/23 06:14:48;;;;;;;0.73;0.60;;;13.10;99.90;13.30;100126.00;;;;5019222;27;82265;-65
2023/09/23 06:17:14;;;;;;;0.30;0.30;;;13.20;99.90;13.40;100119.00;;;;5014909;27;82800;-65
2023/09/23 06:19:40;;;;;;;0.37;0.37;;;13.30;99.90;13.50;100128.00;;;;5001181;27;111606;-65
2023/09/23 06:22:05;;;;;;;0.20;0.20;;;13.40;99.90;13.60;100131.00;;;;5011732;27;83366;-65
2023/09/23 06:24:31;;;;;;;0.27;0.27;;;13.50;99.90;13.70;100140.00;;;;5018244;27;89462;-65
2023/09/23 06:26:57;;;;;;;0.60;0.50;;;13.60;99.90;13.80;100142.00;;;;5014211;27;83183;-64
2023/09/23 06:29:22;;;;;;;0.40;0.40;;;13.70;99.90;14.00;100138.00;;;;5017270;27;86329;-65
2023/09/23 06:31:48;;;;;;;0.30;0.30;;;13.90;99.90;14.10;100138.00;;;;5017559;27;103361;-66
2023/09/23 06:34:14;;;;;;;0.20;0.20;;;14.10;99.90;14.40;100143.00;;;;5012791;27;109032;-65
2023/09/23 06:36:39;;;;;;;2.03;0.32;;;14.30;99.90;14.60;100157.00;;;;5013138;27;113177;-66
2023/09/23 06:39:05;;;;;;;0.50;0.50;;;14.50;99.90;14.80;100161.00;;;;5013411;27;83329;-65
2023/09/23 06:41:31;;;;;;;0.30;0.20;;;14.60;99.90;15.00;100173.00;;;;5011837;27;110550;-65
2023/09/23 06:43:56;;;;;;;1.20;0.35;;;14.90;99.90;15.10;100163.00;;;;5012710;27;108718;-66
2023/09/23 06:46:22;;;;;;;0.77;0.40;;;15.10;99.90;15.30;100166.00;;;;5009822;27;100149;-66
2023/09/23 06:48:48;;;;;;;0.40;0.30;;;15.20;99.90;15.40;100176.00;;;;4995063;27;113859;-65
2023/09/23 06:51:13;;;;;;;0.20;0.20;;;15.30;99.90;15.60;100187.00;;;;5010407;27;109994;-65
2023/09/23 06:53:40;;;;;;;0.20;0.20;;;15.50;99.90;15.70;100195.00;;;;4968164;27;108841;-65
2023/09/23 06:56:06;;;;;;;1.15;0.43;;;15.60;99.90;15.80;100196.00;;;;4969946;28;84489;-65
2023/09/23 06:58:31;;;;;;;0.35;0.20;;;15.70;99.90;15.80;100189.00;;;;4965964;28;112812;-65
2023/09/23 07:00:57;;;;;;;0.57;0.40;;;15.70;99.90;15.80;100186.00;;;;4969841;28;109284;-65
2023/09/23 07:03:23;;;;;;;0.55;0.30;;;15.70;99.90;15.80;100193.00;;;;4912936;28;82496;-64
2023/09/23 07:05:48;;;;;;;0.20;0.20;;;15.70;99.90;15.90;100208.00;;;;4966465;28;112593;-64
2023/09/23 07:08:14;;;;;;;1.80;0.20;;;15.80;99.90;15.90;100213.00;;;;4963971;28;111848;-64
2023/09/23 07:10:41;;;;;;;0.73;0.40;;;15.90;99.90;16.00;100215.00;;;;4968538;28;110126;-64
2023/09/23 07:13:08;;;;;;;0.45;0.20;;;15.90;99.90;16.00;100221.00;;;;4968117;28;82945;-66
2023/09/23 07:15:38;;;;;;;0.20;0.20;;;16.00;99.90;16.10;100224.00;;;;4971137;28;82651;-65
2023/09/23 07:18:05;;;;;;;0.73;0.60;;;16.00;99.90;16.00;100228.00;;;;4971578;28;83638;-66
2023/09/23 07:20:31;;;;;;;0.30;0.30;;;16.00;99.90;16.00;100234.00;;;;4952704;28;83010;-64
2023/09/23 07:22:57;;;;;;;0.15;0.15;;;16.00;99.90;16.00;100239.00;;;;4966479;28;82827;-65
2023/09/23 07:25:22;;;;;;;0.30;0.30;;;16.00;99.90;16.00;100242.00;;;;4987370;27;84368;-65
2023/09/23 07:27:49;;;;;;;0.10;0.10;;;16.00;99.90;16.00;100237.00;;;;4988568;27;112626;-66
2023/09/23 07:30:15;;;;;;;0.40;0.40;;;16.00;99.90;15.90;100253.00;;;;4987482;27;84651;-65
2023/09/23 07:32:41;;;;;;;0.40;0.30;;;15.90;99.90;15.90;100247.00;;;;4994871;27;82817;-65
2023/09/23 07:35:07;;;;;;;1.10;0.73;;;15.90;99.90;16.00;100259.00;;;;4989697;27;113887;-66
2023/09/23 07:37:34;;;;;;;0.40;0.40;;;15.90;99.90;16.00;100246.00;;;;4993352;27;84398;-66
2023/09/23 07:39:59;;;;;;;1.17;0.60;;;15.90;99.90;16.00;100256.00;;;;4984954;27;86122;-65
2023/09/23 07:42:25;;;;;;;0.40;0.40;;;16.00;99.90;16.00;100260.00;;;;4990596;27;109925;-65
2023/09/23 07:44:51;;;;;;;0.20;0.20;;;15.90;99.90;16.00;100267.00;;;;4989890;27;104136;-65
2023/09/23 07:47:16;;;;;;;0.30;0.30;;;16.00;99.90;16.10;100272.00;;;;4992820;27;112430;-65
2023/09/23 07:49:42;;;;;;;0.60;0.45;;;16.00;99.90;16.20;100273.00;;;;4987050;27;108069;-67
2023/09/23 07:52:08;;;;;;;0.30;0.30;;;16.10;99.90;16.20;100280.00;;;;4989666;27;107933;-66
2023/09/23 07:54:33;;;;;;;0.75;0.30;;;16.20;99.90;16.30;100289.00;;;;4986060;27;112169;-66
2023/09/23 07:56:59;;;;;;;0.22;0.22;;;16.20;99.90;16.40;100276.00;;;;4986619;27;102531;-65
2023/09/23 07:59:25;;;;;;;0.10;0.10;;;16.30;99.90;16.50;100293.00;;;;4984467;27;106851;-66
2023/09/23 08:01:50;;;;;;;0.15;0.15;;;16.40;99.90;16.50;100294.00;;;;4986801;27;84248;-65
2023/09/23 08:04:16;;;;;;;0.17;0.17;;;16.40;99.90;16.60;100293.00;;;;4987073;27;84456;-65
2023/09/23 08:06:43;;;;;;;0.20;0.20;;;16.50;99.90;16.70;100296.00;;;;4988227;27;112869;-64
2023/09/23 08:09:09;;;;;;;0.22;0.20;;;16.60;99.90;16.80;100291.00;;;;4994919;27;82817;-64
2023/09/23 08:11:35;;;;;;;0.63;0.20;;;16.70;99.90;17.00;100295.00;;;;4987851;27;83135;-67
2023/09/23 08:14:01;;;;;;;0.45;0.40;;;16.90;99.90;17.10;100292.00;;;;4988961;27;111507;-66
2023/09/23 08:16:26;;;;;;;2.88;0.45;;;17.00;99.70;17.20;100295.00;;;;4986181;27;113636;-66
2023/09/23 08:18:52;;;;;;;0.55;0.35;;;17.10;98.50;17.20;100306.00;;;;4990202;27;108441;-66
2023/09/23 08:21:18;;;;;;;0.45;0.45;;;17.10;98.30;17.20;100321.00;;;;4983784;27;109371;-66
2023/09/23 08:23:44;;;;;;;0.40;0.40;;;17.10;98.10;17.30;100323.00;;;;4984938;27;86389;-65
2023/09/23 08:26:10;;;;;;;0.22;0.22;;;17.20;98.00;17.40;100317.00;;;;4986717;27;109966;-65
2023/09/23 08:28:36;;;;;;;0.25;0.22;;;17.20;97.90;17.40;100332.00;;;;4984349;27;83110;-65
2023/09/23 08:31:02;;;;;;;0.17;0.15;;;17.30;97.90;17.40;100326.00;;;;4985430;27;83193;-65
2023/09/23 08:33:28;;;;;;;0.45;0.30;;;17.40;97.20;17.40;100331.00;;;;4984770;27;113367;-68
2023/09/23 08:35:53;;;;;;;0.17;0.17;;;17.40;97.10;17.40;100346.00;;;;4983602;27;112681;-65
2023/09/23 08:38:20;;;;;;;0.38;0.30;;;17.30;96.70;17.40;100351.00;;;;4984711;27;82902;-65
2023/09/23 08:40:46;;;;;;;3.50;0.30;;;17.30;96.60;17.50;100346.00;;;;4969507;27;82050;-66
2023/09/23 08:43:36;;;;;;;0.10;0.10;;;17.40;96.50;17.60;100359.00;;;;4982255;27;84402;-66
2023/09/23 08:46:07;;;;;;;0.90;0.50;;;17.50;95.70;17.60;100351.00;;;;4989623;27;83536;-66
2023/09/23 08:48:37;;;;;;;0.20;0.20;;;17.50;95.90;17.80;100363.00;;;;4983105;28;83891;-65
2023/09/23 08:51:06;;;;;;;0.20;0.20;;;17.60;95.70;17.90;100354.00;;;;4986476;28;99120;-66
2023/09/23 08:53:34;;;;;;;0.28;0.28;;;17.80;94.80;18.00;100354.00;;;;4984161;28;83759;-65
2023/09/23 08:56:05;;;;;;;0.63;0.20;;;17.90;94.20;18.10;100366.00;;;;4985452;27;83255;-66
2023/09/23 08:58:30;;;;;;;0.20;0.20;;;18.00;93.80;18.10;100352.00;;;;4987221;27;82812;-66
2023/09/23 09:00:56;;;;;;;0.25;0.22;;;18.00;92.90;18.00;100363.00;;;;4991785;27;100505;-66
2023/09/23 09:03:22;;;;;;;0.20;0.20;;;17.90;93.20;17.90;100365.00;;;;4987283;27;107491;-65
2023/09/23 09:05:48;;;;;;;0.20;0.20;;;17.90;92.90;17.90;100361.00;;;;4990500;27;112163;-66
2023/09/23 09:08:14;;;;;;;1.13;0.73;;;17.80;93.00;18.10;100356.00;;;;4984959;27;82605;-66
2023/09/23 09:10:40;;;;;;;0.57;0.30;;;17.90;93.20;18.30;100354.00;;;;4983177;27;109894;-66
2023/09/23 09:13:07;;;;;;;0.22;0.22;;;18.10;93.20;18.50;100359.00;;;;4984518;27;85533;-65
2023/09/23 09:15:58;;;;;;;0.65;0.20;;;18.30;92.60;18.60;100359.00;;;;4987980;27;84029;-64
2023/09/23 09:18:24;;;;;;;0.22;0.20;;;18.40;92.60;18.70;100365.00;;;;4980343;27;104101;-65
2023/09/23 09:20:49;;;;;;;0.20;0.20;;;18.60;91.30;18.80;100362.00;;;;4985593;27;94329;-65
2023/09/23 09:23:16;;;;;;;0.10;0.10;;;18.70;91.10;18.80;100370.00;;;;4982098;27;113427;-65
2023/09/23 09:25:47;;;;;;;0.28;0.20;;;18.70;91.00;19.00;100370.00;;;;4982355;27;83511;-66
2023/09/23 09:28:13;;;;;;;0.10;0.10;;;18.80;90.60;19.20;100375.00;;;;4985895;27;82857;-65
2023/09/23 09:30:39;;;;;;;0.10;0.10;;;19.00;90.50;19.30;100382.00;;;;4986638;27;108772;-65
2023/09/23 09:33:08;;;;;;;0.10;0.10;;;19.10;90.40;19.40;100386.00;;;;4983287;27;83629;-64
2023/09/23 09:35:34;;;;;;;1.08;0.30;;;19.20;90.50;19.70;100381.00;;;;4988466;27;82877;-65
2023/09/23 09:38:06;;;;;;;0.28;0.28;;;19.40;90.40;20.00;100379.00;;;;4984977;27;110157;-65
2023/09/23 09:40:32;;;;;;;0.40;0.40;;;20.00;88.40;20.10;100381.00;;;;4991424;27;82642;-66
2023/09/23 09:42:59;;;;;;;3.33;2.15;;;19.90;87.30;20.20;100375.00;;;;4988592;27;82955;-65
2023/09/23 09:45:26;;;;;;;0.93;0.55;;;21.10;85.60;20.30;100388.00;;;;4989073;27;93499;-66
2023/09/23 09:47:55;;;;;;;0.10;0.10;;;20.10;84.20;20.40;100394.00;;;;4983752;27;83197;-65
2023/09/23 09:50:23;;;;;;;0.25;0.20;;;20.20;84.90;20.60;100394.00;;;;4990011;27;82774;-65
2023/09/23 09:52:49;;;;;;;2.45;0.38;;;20.30;84.30;20.60;100395.00;;;;4992321;27;82971;-65
2023/09/23 09:55:18;;;;;;;0.15;0.15;;;20.40;83.40;20.60;100397.00;;;;4991095;27;84489;-65
2023/09/23 09:57:47;;;;;;;1.00;0.57;;;20.40;80.80;20.70;100399.00;;;;4982639;27;83205;-65
2023/09/23 10:00:27;;;;;;;1.45;0.57;;;20.50;80.40;20.60;100405.00;;;;4991130;27;82733;-65
2023/09/23 10:03:08;;;;;;;0.30;0.30;;;20.40;80.00;20.30;100396.00;;;;4985858;27;83945;-66
2023/09/23 10:05:35;;;;;;;0.32;0.30;;;20.20;80.50;20.00;100399.00;;;;4991710;27;83739;-65
2023/09/23 10:08:12;;;;;;;0.25;0.25;;;20.00;80.20;19.70;100393.00;;;;4986281;27;83324;-66
2023/09/23 10:10:46;;;;;;;1.55;0.40;;;19.70;81.10;19.50;100392.00;;;;4993003;27;82786;-66
2023/09/23 10:13:13;;;;;;;1.95;0.40;;;19.50;82.40;19.50;100397.00;;;;4987879;27;84157;-65
2023/09/23 10:15:40;;;;;;;0.20;0.20;;;19.40;83.00;19.60;100404.00;;;;4988201;27;97512;-65
2023/09/23 10:18:14;;;;;;;0.20;0.20;;;19.50;83.10;19.90;100396.00;;;;4986373;27;82755;-66
2023/09/23 10:20:50;;;;;;;0.40;0.40;;;19.60;81.40;20.10;100409.00;;;;4995993;27;82010;-66
2023/09/23 10:23:40;;;;;;;1.05;0.10;;;19.80;79.70;20.30;100392.00;;;;4989371;27;84089;-66
2023/09/23 10:26:18;;;;;;;0.10;0.10;;;20.00;78.50;20.40;100399.00;;;;4985689;27;83583;-65
2023/09/23 10:29:04;;;;;;;0.15;0.15;;;20.20;79.20;20.70;100401.00;;;;4985355;27;83859;-66
2023/09/23 10:31:32;;;;;;;0.10;0.10;;;20.40;75.40;20.80;100394.00;;;;4980944;27;89692;-66
2023/09/23 10:34:05;;;;;;;0.10;0.10;;;20.50;74.90;20.80;100389.00;;;;4984984;27;84031;-68
2023/09/23 10:36:30;;;;;;;0.30;0.20;;;20.60;74.20;20.70;100391.00;;;;4988318;27;83710;-66
2023/09/23 10:38:57;;;;;;;0.63;0.20;;;20.60;74.90;20.50;100396.00;;;;4987396;27;82693;-67
2023/09/23 10:41:35;;;;;;;0.38;0.20;;;20.40;74.30;20.30;100396.00;;;;4993210;27;82821;-65
2023/09/23 10:44:04;;;;;;;0.45;0.30;;;20.20;74.20;20.00;100401.00;;;;4990875;27;82928;-65
2023/09/23 10:46:30;;;;;;;0.73;0.28;;;20.00;74.90;19.90;100394.00;;;;4990780;27;82782;-65
2023/09/23 10:48:56;;;;;;;0.20;0.20;;;19.80;75.30;19.90;100392.00;;;;4988877;27;82947;-64
2023/09/23 10:51:22;;;;;;;0.35;0.15;;;19.80;76.20;19.80;100396.00;;;;4988538;27;82894;-66
2023/09/23 10:53:51;;;;;;;0.10;0.10;;;19.70;77.00;19.70;100393.00;;;;4985753;27;112698;-66